sensor_id;sensor_type;location;lat;lon;timestamp;P1;durP1;ratioP1;P2;durP2;ratioP2
11735;SDS011;5924;51.398;7.088;2023-07-20T00:00:52;5.10;;;4.90;;
11735;SDS011;5924;51.398;7.088;2023-07-20T00:03:20;4.20;;;4.00;;
11735;SDS011;5924;51.398;7.088;2023-07-20T00:05:50;3.17;;;3.07;;
11735;SDS011;5924;51.398;7.088;2023-07-20T00:08:16;4.47;;;4.07;;
11735;SDS011;5924;51.398;7.088;2023-07-20T00:10:43;4.53;;;4.33;;
11735;SDS011;5924;51.398;7.088;2023-07-20T00:13:09;4.83;;;4.63;;
11735;SDS011;5924;51.398;7.088;2023-07-20T00:15:36;5.23;;;5.13;;
11735;SDS011;5924;51.398;7.088;2023-07-20T00:18:02;4.93;;;4.67;;
11735;SDS011;5924;51.398;7.088;2023-07-20T00:20:29;4.10;;;4.10;;
11735;SDS011;5924;51.398;7.088;2023-07-20T00:22:54;4.30;;;4.20;;
11735;SDS011;5924;51.398;7.088;2023-07-20T00:25:22;3.50;;;3.40;;
11735;SDS011;5924;51.398;7.088;2023-07-20T00:27:48;3.83;;;3.63;;
11735;SDS011;5924;51.398;7.088;2023-07-20T00:30:14;4.83;;;4.73;;
11735;SDS011;5924;51.398;7.088;2023-07-20T00:32:40;5.07;;;4.67;;
11735;SDS011;5924;51.398;7.088;2023-07-20T00:35:15;4.70;;;4.57;;
11735;SDS011;5924;51.398;7.088;2023-07-20T00:37:41;3.73;;;3.43;;
11735;SDS011;5924;51.398;7.088;2023-07-20T00:40:18;5.37;;;4.60;;
11735;SDS011;5924;51.398;7.088;2023-07-20T00:42:47;4.03;;;3.87;;
11735;SDS011;5924;51.398;7.088;2023-07-20T00:45:15;4.73;;;4.53;;
11735;SDS011;5924;51.398;7.088;2023-07-20T00:47:41;4.20;;;4.00;;
11735;SDS011;5924;51.398;7.088;2023-07-20T00:50:07;5.37;;;5.17;;
11735;SDS011;5924;51.398;7.088;2023-07-20T00:52:33;3.80;;;3.70;;
11735;SDS011;5924;51.398;7.088;2023-07-20T00:55:37;6.13;;;5.63;;
11735;SDS011;5924;51.398;7.088;2023-07-20T00:57:56;6.00;;;5.60;;
11735;SDS011;5924;51.398;7.088;2023-07-20T01:00:25;5.77;;;5.37;;
11735;SDS011;5924;51.398;7.088;2023-07-20T01:02:51;4.57;;;4.47;;
11735;SDS011;5924;51.398;7.088;2023-07-20T01:05:20;5.37;;;5.07;;
11735;SDS011;5924;51.398;7.088;2023-07-20T01:09:02;5.40;;;5.10;;
11735;SDS011;5924;51.398;7.088;2023-07-20T01:11:29;5.60;;;5.30;;
11735;SDS011;5924;51.398;7.088;2023-07-20T01:14:20;6.97;;;6.37;;
11735;SDS011;5924;51.398;7.088;2023-07-20T01:16:48;5.57;;;5.27;;
11735;SDS011;5924;51.398;7.088;2023-07-20T01:19:23;6.30;;;5.80;;
11735;SDS011;5924;51.398;7.088;2023-07-20T01:22:08;4.53;;;4.33;;
11735;SDS011;5924;51.398;7.088;2023-07-20T01:31:42;4.70;;;4.40;;
11735;SDS011;5924;51.398;7.088;2023-07-20T01:33:45;4.50;;;4.30;;
11735;SDS011;5924;51.398;7.088;2023-07-20T01:36:45;6.03;;;5.40;;
11735;SDS011;5924;51.398;7.088;2023-07-20T01:39:13;6.57;;;5.80;;
11735;SDS011;5924;51.398;7.088;2023-07-20T01:41:47;4.10;;;3.97;;
11735;SDS011;5924;51.398;7.088;2023-07-20T01:44:16;4.00;;;3.80;;
11735;SDS011;5924;51.398;7.088;2023-07-20T01:46:45;5.40;;;5.10;;
11735;SDS011;5924;51.398;7.088;2023-07-20T01:49:22;4.40;;;4.20;;
11735;SDS011;5924;51.398;7.088;2023-07-20T01:51:47;5.23;;;4.93;;
11735;SDS011;5924;51.398;7.088;2023-07-20T01:54:13;4.70;;;4.40;;
11735;SDS011;5924;51.398;7.088;2023-07-20T01:56:41;3.53;;;3.43;;
11735;SDS011;5924;51.398;7.088;2023-07-20T01:59:07;6.70;;;5.60;;
11735;SDS011;5924;51.398;7.088;2023-07-20T02:01:32;4.20;;;4.10;;
11735;SDS011;5924;51.398;7.088;2023-07-20T02:04:01;7.23;;;6.33;;
11735;SDS011;5924;51.398;7.088;2023-07-20T02:06:30;7.03;;;6.57;;
11735;SDS011;5924;51.398;7.088;2023-07-20T02:08:55;7.20;;;6.60;;
11735;SDS011;5924;51.398;7.088;2023-07-20T02:11:21;6.67;;;6.10;;
11735;SDS011;5924;51.398;7.088;2023-07-20T02:13:49;6.23;;;5.93;;
11735;SDS011;5924;51.398;7.088;2023-07-20T02:16:21;6.60;;;6.10;;
11735;SDS011;5924;51.398;7.088;2023-07-20T02:18:47;6.17;;;5.73;;
11735;SDS011;5924;51.398;7.088;2023-07-20T02:21:12;7.20;;;6.50;;
11735;SDS011;5924;51.398;7.088;2023-07-20T02:23:38;6.50;;;5.13;;
11735;SDS011;5924;51.398;7.088;2023-07-20T02:26:03;6.80;;;6.10;;
11735;SDS011;5924;51.398;7.088;2023-07-20T02:28:32;7.00;;;6.30;;
11735;SDS011;5924;51.398;7.088;2023-07-20T02:31:11;9.03;;;6.43;;
11735;SDS011;5924;51.398;7.088;2023-07-20T02:33:55;7.87;;;7.07;;
11735;SDS011;5924;51.398;7.088;2023-07-20T02:36:21;7.30;;;6.70;;
11735;SDS011;5924;51.398;7.088;2023-07-20T02:38:54;6.10;;;5.60;;
11735;SDS011;5924;51.398;7.088;2023-07-20T02:41:23;8.23;;;6.43;;
11735;SDS011;5924;51.398;7.088;2023-07-20T02:43:51;10.47;;;7.93;;
11735;SDS011;5924;51.398;7.088;2023-07-20T02:46:24;8.40;;;7.20;;
11735;SDS011;5924;51.398;7.088;2023-07-20T02:48:50;8.47;;;7.13;;
11735;SDS011;5924;51.398;7.088;2023-07-20T02:51:15;10.33;;;8.27;;
11735;SDS011;5924;51.398;7.088;2023-07-20T02:53:44;7.90;;;7.10;;
11735;SDS011;5924;51.398;7.088;2023-07-20T02:56:12;8.83;;;7.97;;
11735;SDS011;5924;51.398;7.088;2023-07-20T02:58:40;8.53;;;6.40;;
11735;SDS011;5924;51.398;7.088;2023-07-20T03:01:18;12.70;;;8.67;;
11735;SDS011;5924;51.398;7.088;2023-07-20T03:03:44;11.33;;;6.50;;
11735;SDS011;5924;51.398;7.088;2023-07-20T03:06:18;12.97;;;7.93;;
11735;SDS011;5924;51.398;7.088;2023-07-20T03:08:43;11.53;;;8.00;;
11735;SDS011;5924;51.398;7.088;2023-07-20T03:11:12;9.53;;;8.03;;
11735;SDS011;5924;51.398;7.088;2023-07-20T03:13:44;8.43;;;6.60;;
11735;SDS011;5924;51.398;7.088;2023-07-20T03:19:28;6.77;;;6.30;;
11735;SDS011;5924;51.398;7.088;2023-07-20T03:21:56;10.10;;;6.77;;
11735;SDS011;5924;51.398;7.088;2023-07-20T03:24:22;7.37;;;6.73;;
11735;SDS011;5924;51.398;7.088;2023-07-20T03:30:18;7.37;;;6.70;;
11735;SDS011;5924;51.398;7.088;2023-07-20T03:32:43;10.30;;;7.00;;
11735;SDS011;5924;51.398;7.088;2023-07-20T03:35:12;7.40;;;6.67;;
11735;SDS011;5924;51.398;7.088;2023-07-20T03:37:38;22.57;;;8.33;;
11735;SDS011;5924;51.398;7.088;2023-07-20T03:40:03;9.67;;;8.67;;
11735;SDS011;5924;51.398;7.088;2023-07-20T03:42:39;11.67;;;8.83;;
11735;SDS011;5924;51.398;7.088;2023-07-20T03:45:07;8.90;;;7.20;;
11735;SDS011;5924;51.398;7.088;2023-07-20T03:47:33;8.43;;;7.60;;
11735;SDS011;5924;51.398;7.088;2023-07-20T03:50:04;12.10;;;7.53;;
11735;SDS011;5924;51.398;7.088;2023-07-20T03:52:51;11.63;;;8.70;;
11735;SDS011;5924;51.398;7.088;2023-07-20T03:58:41;14.83;;;8.83;;
11735;SDS011;5924;51.398;7.088;2023-07-20T04:01:06;12.07;;;7.67;;
11735;SDS011;5924;51.398;7.088;2023-07-20T04:06:38;11.20;;;7.43;;
11735;SDS011;5924;51.398;7.088;2023-07-20T04:09:03;13.20;;;8.70;;
11735;SDS011;5924;51.398;7.088;2023-07-20T04:11:31;11.13;;;8.87;;
11735;SDS011;5924;51.398;7.088;2023-07-20T04:13:57;14.00;;;9.60;;
11735;SDS011;5924;51.398;7.088;2023-07-20T04:16:26;13.50;;;8.90;;
11735;SDS011;5924;51.398;7.088;2023-07-20T04:18:55;13.90;;;9.97;;
11735;SDS011;5924;51.398;7.088;2023-07-20T04:21:21;19.67;;;9.17;;
11735;SDS011;5924;51.398;7.088;2023-07-20T04:23:50;11.40;;;8.90;;
11735;SDS011;5924;51.398;7.088;2023-07-20T04:26:15;22.33;;;9.80;;
11735;SDS011;5924;51.398;7.088;2023-07-20T04:28:41;16.40;;;9.43;;
11735;SDS011;5924;51.398;7.088;2023-07-20T04:31:14;17.57;;;9.50;;
11735;SDS011;5924;51.398;7.088;2023-07-20T04:33:41;16.33;;;10.27;;
11735;SDS011;5924;51.398;7.088;2023-07-20T04:36:06;16.03;;;9.37;;
11735;SDS011;5924;51.398;7.088;2023-07-20T04:38:33;15.20;;;9.30;;
11735;SDS011;5924;51.398;7.088;2023-07-20T04:40:59;16.50;;;10.40;;
11735;SDS011;5924;51.398;7.088;2023-07-20T04:43:24;22.13;;;11.40;;
11735;SDS011;5924;51.398;7.088;2023-07-20T04:45:54;21.47;;;12.47;;
11735;SDS011;5924;51.398;7.088;2023-07-20T04:48:40;20.03;;;13.27;;
11735;SDS011;5924;51.398;7.088;2023-07-20T04:51:08;16.83;;;11.63;;
11735;SDS011;5924;51.398;7.088;2023-07-20T04:53:35;17.47;;;11.63;;
11735;SDS011;5924;51.398;7.088;2023-07-20T04:56:01;19.03;;;13.13;;
11735;SDS011;5924;51.398;7.088;2023-07-20T04:58:26;16.57;;;12.27;;
11735;SDS011;5924;51.398;7.088;2023-07-20T05:00:52;12.70;;;10.50;;
11735;SDS011;5924;51.398;7.088;2023-07-20T05:03:18;17.97;;;12.80;;
11735;SDS011;5924;51.398;7.088;2023-07-20T05:05:43;20.33;;;13.23;;
11735;SDS011;5924;51.398;7.088;2023-07-20T05:08:09;25.90;;;15.53;;
11735;SDS011;5924;51.398;7.088;2023-07-20T05:10:35;22.90;;;15.77;;
11735;SDS011;5924;51.398;7.088;2023-07-20T05:13:01;18.67;;;13.40;;
11735;SDS011;5924;51.398;7.088;2023-07-20T05:15:26;16.17;;;12.63;;
11735;SDS011;5924;51.398;7.088;2023-07-20T05:17:52;24.03;;;14.70;;
11735;SDS011;5924;51.398;7.088;2023-07-20T05:20:18;21.87;;;15.93;;
11735;SDS011;5924;51.398;7.088;2023-07-20T05:22:44;27.40;;;15.80;;
11735;SDS011;5924;51.398;7.088;2023-07-20T05:25:10;18.47;;;14.10;;
11735;SDS011;5924;51.398;7.088;2023-07-20T05:27:36;20.77;;;16.00;;
11735;SDS011;5924;51.398;7.088;2023-07-20T05:30:03;22.07;;;16.03;;
11735;SDS011;5924;51.398;7.088;2023-07-20T05:32:30;24.53;;;16.73;;
11735;SDS011;5924;51.398;7.088;2023-07-20T05:34:56;23.23;;;16.10;;
11735;SDS011;5924;51.398;7.088;2023-07-20T05:37:21;23.13;;;14.30;;
11735;SDS011;5924;51.398;7.088;2023-07-20T05:39:47;22.37;;;15.23;;
11735;SDS011;5924;51.398;7.088;2023-07-20T05:42:13;18.27;;;14.30;;
11735;SDS011;5924;51.398;7.088;2023-07-20T05:44:39;22.40;;;15.10;;
11735;SDS011;5924;51.398;7.088;2023-07-20T05:47:06;15.97;;;14.10;;
11735;SDS011;5924;51.398;7.088;2023-07-20T05:49:31;21.67;;;15.97;;
11735;SDS011;5924;51.398;7.088;2023-07-20T05:52:00;23.90;;;17.10;;
11735;SDS011;5924;51.398;7.088;2023-07-20T05:54:28;25.67;;;17.50;;
11735;SDS011;5924;51.398;7.088;2023-07-20T05:56:54;22.80;;;17.17;;
11735;SDS011;5924;51.398;7.088;2023-07-20T05:59:19;21.53;;;18.50;;
11735;SDS011;5924;51.398;7.088;2023-07-20T06:01:45;25.03;;;18.77;;
11735;SDS011;5924;51.398;7.088;2023-07-20T06:04:13;23.80;;;16.53;;
11735;SDS011;5924;51.398;7.088;2023-07-20T06:06:39;21.40;;;17.40;;
11735;SDS011;5924;51.398;7.088;2023-07-20T06:09:07;23.97;;;17.60;;
11735;SDS011;5924;51.398;7.088;2023-07-20T06:11:37;24.10;;;15.90;;
11735;SDS011;5924;51.398;7.088;2023-07-20T06:14:06;22.53;;;17.17;;
11735;SDS011;5924;51.398;7.088;2023-07-20T06:16:32;22.17;;;15.27;;
11735;SDS011;5924;51.398;7.088;2023-07-20T06:18:59;22.23;;;16.47;;
11735;SDS011;5924;51.398;7.088;2023-07-20T06:21:30;20.50;;;14.90;;
11735;SDS011;5924;51.398;7.088;2023-07-20T06:23:56;18.57;;;15.50;;
11735;SDS011;5924;51.398;7.088;2023-07-20T06:26:24;17.33;;;14.23;;
11735;SDS011;5924;51.398;7.088;2023-07-20T06:28:49;22.60;;;17.10;;
11735;SDS011;5924;51.398;7.088;2023-07-20T06:31:21;17.67;;;15.77;;
11735;SDS011;5924;51.398;7.088;2023-07-20T06:33:52;14.93;;;13.00;;
11735;SDS011;5924;51.398;7.088;2023-07-20T06:36:18;18.17;;;12.83;;
11735;SDS011;5924;51.398;7.088;2023-07-20T06:38:47;17.57;;;13.30;;
11735;SDS011;5924;51.398;7.088;2023-07-20T06:41:12;16.80;;;14.13;;
11735;SDS011;5924;51.398;7.088;2023-07-20T06:43:38;16.63;;;14.90;;
11735;SDS011;5924;51.398;7.088;2023-07-20T06:48:50;17.10;;;14.50;;
11735;SDS011;5924;51.398;7.088;2023-07-20T06:51:16;18.23;;;14.80;;
11735;SDS011;5924;51.398;7.088;2023-07-20T06:53:42;16.77;;;15.00;;
11735;SDS011;5924;51.398;7.088;2023-07-20T06:56:08;15.03;;;13.33;;
11735;SDS011;5924;51.398;7.088;2023-07-20T06:58:34;14.93;;;13.33;;
11735;SDS011;5924;51.398;7.088;2023-07-20T07:01:04;16.20;;;14.50;;
11735;SDS011;5924;51.398;7.088;2023-07-20T07:03:31;21.27;;;17.90;;
11735;SDS011;5924;51.398;7.088;2023-07-20T07:05:58;16.57;;;14.87;;
11735;SDS011;5924;51.398;7.088;2023-07-20T07:08:27;17.57;;;15.13;;
11735;SDS011;5924;51.398;7.088;2023-07-20T07:10:53;34.80;;;22.73;;
11735;SDS011;5924;51.398;7.088;2023-07-20T07:13:40;33.33;;;22.67;;
11735;SDS011;5924;51.398;7.088;2023-07-20T07:16:05;32.33;;;22.60;;
11735;SDS011;5924;51.398;7.088;2023-07-20T07:18:31;26.57;;;17.53;;
11735;SDS011;5924;51.398;7.088;2023-07-20T07:21:06;22.53;;;17.10;;
11735;SDS011;5924;51.398;7.088;2023-07-20T07:23:32;19.27;;;16.17;;
11735;SDS011;5924;51.398;7.088;2023-07-20T07:25:57;28.63;;;20.77;;
11735;SDS011;5924;51.398;7.088;2023-07-20T07:28:25;22.60;;;17.33;;
11735;SDS011;5924;51.398;7.088;2023-07-20T07:30:54;17.20;;;14.63;;
11735;SDS011;5924;51.398;7.088;2023-07-20T07:33:30;20.80;;;15.60;;
11735;SDS011;5924;51.398;7.088;2023-07-20T07:35:59;17.40;;;15.07;;
11735;SDS011;5924;51.398;7.088;2023-07-20T07:38:25;14.80;;;12.80;;
11735;SDS011;5924;51.398;7.088;2023-07-20T07:40:51;17.00;;;14.30;;
11735;SDS011;5924;51.398;7.088;2023-07-20T07:43:16;12.90;;;11.70;;
11735;SDS011;5924;51.398;7.088;2023-07-20T07:45:42;10.83;;;9.93;;
11735;SDS011;5924;51.398;7.088;2023-07-20T07:48:23;10.87;;;10.03;;
11735;SDS011;5924;51.398;7.088;2023-07-20T07:50:53;9.53;;;8.80;;
11735;SDS011;5924;51.398;7.088;2023-07-20T07:53:22;10.10;;;9.37;;
11735;SDS011;5924;51.398;7.088;2023-07-20T07:55:53;11.70;;;10.70;;
11735;SDS011;5924;51.398;7.088;2023-07-20T07:58:22;12.33;;;11.27;;
11735;SDS011;5924;51.398;7.088;2023-07-20T08:00:50;13.57;;;12.20;;
11735;SDS011;5924;51.398;7.088;2023-07-20T08:03:19;15.67;;;14.07;;
11735;SDS011;5924;51.398;7.088;2023-07-20T08:05:44;17.33;;;13.40;;
11735;SDS011;5924;51.398;7.088;2023-07-20T08:08:10;15.50;;;14.10;;
11735;SDS011;5924;51.398;7.088;2023-07-20T08:10:47;15.70;;;14.30;;
11735;SDS011;5924;51.398;7.088;2023-07-20T08:13:20;15.93;;;14.07;;
11735;SDS011;5924;51.398;7.088;2023-07-20T08:15:52;14.07;;;12.87;;
11735;SDS011;5924;51.398;7.088;2023-07-20T08:18:18;5.50;;;5.30;;
11735;SDS011;5924;51.398;7.088;2023-07-20T08:20:49;6.33;;;5.83;;
11735;SDS011;5924;51.398;7.088;2023-07-20T08:23:26;5.70;;;5.50;;
11735;SDS011;5924;51.398;7.088;2023-07-20T08:25:58;5.33;;;5.13;;
11735;SDS011;5924;51.398;7.088;2023-07-20T08:28:26;5.03;;;4.93;;
11735;SDS011;5924;51.398;7.088;2023-07-20T08:30:54;4.17;;;4.07;;
11735;SDS011;5924;51.398;7.088;2023-07-20T08:33:20;4.80;;;4.60;;
11735;SDS011;5924;51.398;7.088;2023-07-20T08:35:46;5.57;;;5.37;;
11735;SDS011;5924;51.398;7.088;2023-07-20T08:38:12;5.83;;;5.63;;
11735;SDS011;5924;51.398;7.088;2023-07-20T08:40:42;4.47;;;4.37;;
11735;SDS011;5924;51.398;7.088;2023-07-20T08:43:15;3.80;;;3.70;;
11735;SDS011;5924;51.398;7.088;2023-07-20T08:45:49;4.00;;;3.90;;
11735;SDS011;5924;51.398;7.088;2023-07-20T08:48:19;4.43;;;4.33;;
11735;SDS011;5924;51.398;7.088;2023-07-20T08:53:44;6.03;;;5.73;;
11735;SDS011;5924;51.398;7.088;2023-07-20T08:56:19;5.37;;;5.27;;
11735;SDS011;5924;51.398;7.088;2023-07-20T08:58:49;5.50;;;5.37;;
11735;SDS011;5924;51.398;7.088;2023-07-20T09:01:19;5.97;;;5.67;;
11735;SDS011;5924;51.398;7.088;2023-07-20T09:04:07;5.93;;;5.57;;
11735;SDS011;5924;51.398;7.088;2023-07-20T09:06:39;6.40;;;6.20;;
11735;SDS011;5924;51.398;7.088;2023-07-20T09:09:05;6.17;;;5.93;;
11735;SDS011;5924;51.398;7.088;2023-07-20T09:12:00;5.63;;;5.53;;
11735;SDS011;5924;51.398;7.088;2023-07-20T09:14:25;6.47;;;5.90;;
11735;SDS011;5924;51.398;7.088;2023-07-20T09:17:00;5.00;;;4.80;;
11735;SDS011;5924;51.398;7.088;2023-07-20T09:19:28;3.73;;;3.73;;
11735;SDS011;5924;51.398;7.088;2023-07-20T09:22:02;4.07;;;3.97;;
11735;SDS011;5924;51.398;7.088;2023-07-20T09:24:38;4.17;;;4.17;;
11735;SDS011;5924;51.398;7.088;2023-07-20T09:27:10;3.80;;;3.80;;
11735;SDS011;5924;51.398;7.088;2023-07-20T09:29:49;3.83;;;3.73;;
11735;SDS011;5924;51.398;7.088;2023-07-20T09:32:19;3.93;;;3.73;;
11735;SDS011;5924;51.398;7.088;2023-07-20T09:34:49;3.20;;;3.20;;
11735;SDS011;5924;51.398;7.088;2023-07-20T09:40:16;3.00;;;3.00;;
11735;SDS011;5924;51.398;7.088;2023-07-20T09:42:42;2.70;;;2.70;;
11735;SDS011;5924;51.398;7.088;2023-07-20T09:45:29;3.10;;;2.97;;
11735;SDS011;5924;51.398;7.088;2023-07-20T09:48:23;2.40;;;2.40;;
11735;SDS011;5924;51.398;7.088;2023-07-20T09:50:53;2.40;;;2.33;;
11735;SDS011;5924;51.398;7.088;2023-07-20T09:53:19;2.10;;;2.10;;
11735;SDS011;5924;51.398;7.088;2023-07-20T09:55:51;1.80;;;1.80;;
11735;SDS011;5924;51.398;7.088;2023-07-20T09:58:23;1.50;;;1.50;;
11735;SDS011;5924;51.398;7.088;2023-07-20T10:00:54;1.50;;;1.50;;
11735;SDS011;5924;51.398;7.088;2023-07-20T10:03:28;1.83;;;1.10;;
11735;SDS011;5924;51.398;7.088;2023-07-20T10:06:02;1.37;;;1.37;;
11735;SDS011;5924;51.398;7.088;2023-07-20T10:11:32;3.70;;;1.57;;
11735;SDS011;5924;51.398;7.088;2023-07-20T10:14:06;1.10;;;1.10;;
11735;SDS011;5924;51.398;7.088;2023-07-20T10:16:39;1.40;;;1.40;;
11735;SDS011;5924;51.398;7.088;2023-07-20T10:22:00;1.00;;;1.00;;
11735;SDS011;5924;51.398;7.088;2023-07-20T10:24:32;2.03;;;1.20;;
11735;SDS011;5924;51.398;7.088;2023-07-20T10:27:00;0.80;;;0.80;;
11735;SDS011;5924;51.398;7.088;2023-07-20T10:29:26;2.10;;;1.10;;
11735;SDS011;5924;51.398;7.088;2023-07-20T10:31:53;1.03;;;1.03;;
11735;SDS011;5924;51.398;7.088;2023-07-20T10:34:23;1.03;;;0.80;;
11735;SDS011;5924;51.398;7.088;2023-07-20T10:36:54;0.80;;;0.80;;
11735;SDS011;5924;51.398;7.088;2023-07-20T10:39:45;1.30;;;1.30;;
11735;SDS011;5924;51.398;7.088;2023-07-20T10:42:31;1.10;;;1.10;;
11735;SDS011;5924;51.398;7.088;2023-07-20T10:45:04;0.90;;;0.90;;
11735;SDS011;5924;51.398;7.088;2023-07-20T10:47:40;0.73;;;0.73;;
11735;SDS011;5924;51.398;7.088;2023-07-20T10:50:10;0.80;;;0.80;;
11735;SDS011;5924;51.398;7.088;2023-07-20T10:52:40;1.10;;;1.10;;
11735;SDS011;5924;51.398;7.088;2023-07-20T10:55:18;0.90;;;0.90;;
11735;SDS011;5924;51.398;7.088;2023-07-20T10:58:17;1.00;;;1.00;;
11735;SDS011;5924;51.398;7.088;2023-07-20T11:01:13;1.03;;;1.03;;
11735;SDS011;5924;51.398;7.088;2023-07-20T11:03:40;1.03;;;1.03;;
11735;SDS011;5924;51.398;7.088;2023-07-20T11:06:34;1.07;;;1.07;;
11735;SDS011;5924;51.398;7.088;2023-07-20T11:11:35;1.10;;;1.10;;
11735;SDS011;5924;51.398;7.088;2023-07-20T11:14:20;1.40;;;1.40;;
11735;SDS011;5924;51.398;7.088;2023-07-20T11:16:49;1.43;;;1.33;;
11735;SDS011;5924;51.398;7.088;2023-07-20T11:19:26;1.40;;;1.30;;
11735;SDS011;5924;51.398;7.088;2023-07-20T11:21:58;1.30;;;1.30;;
11735;SDS011;5924;51.398;7.088;2023-07-20T11:24:38;1.60;;;1.60;;
11735;SDS011;5924;51.398;7.088;2023-07-20T11:27:07;1.10;;;1.10;;
11735;SDS011;5924;51.398;7.088;2023-07-20T11:29:37;1.57;;;1.57;;
11735;SDS011;5924;51.398;7.088;2023-07-20T11:32:03;1.50;;;1.50;;
11735;SDS011;5924;51.398;7.088;2023-07-20T11:34:52;2.00;;;2.00;;
11735;SDS011;5924;51.398;7.088;2023-07-20T11:37:20;2.60;;;2.60;;
11735;SDS011;5924;51.398;7.088;2023-07-20T11:39:46;2.50;;;2.50;;
11735;SDS011;5924;51.398;7.088;2023-07-20T11:42:12;1.90;;;1.90;;
11735;SDS011;5924;51.398;7.088;2023-07-20T11:44:43;2.30;;;2.30;;
11735;SDS011;5924;51.398;7.088;2023-07-20T11:47:11;2.17;;;2.17;;
11735;SDS011;5924;51.398;7.088;2023-07-20T11:49:43;2.30;;;2.30;;
11735;SDS011;5924;51.398;7.088;2023-07-20T11:52:14;2.10;;;2.10;;
11735;SDS011;5924;51.398;7.088;2023-07-20T11:54:41;2.30;;;2.30;;
11735;SDS011;5924;51.398;7.088;2023-07-20T11:57:20;3.10;;;2.80;;
11735;SDS011;5924;51.398;7.088;2023-07-20T12:00:19;3.23;;;2.80;;
11735;SDS011;5924;51.398;7.088;2023-07-20T12:02:46;2.80;;;2.70;;
11735;SDS011;5924;51.398;7.088;2023-07-20T12:05:38;2.40;;;2.40;;
11735;SDS011;5924;51.398;7.088;2023-07-20T12:08:06;1.93;;;1.93;;
11735;SDS011;5924;51.398;7.088;2023-07-20T12:10:32;2.10;;;2.10;;
11735;SDS011;5924;51.398;7.088;2023-07-20T12:13:09;2.03;;;1.93;;
11735;SDS011;5924;51.398;7.088;2023-07-20T12:15:39;1.60;;;1.60;;
11735;SDS011;5924;51.398;7.088;2023-07-20T12:18:11;1.43;;;1.43;;
11735;SDS011;5924;51.398;7.088;2023-07-20T12:20:37;2.13;;;2.13;;
11735;SDS011;5924;51.398;7.088;2023-07-20T12:23:10;2.20;;;2.20;;
11735;SDS011;5924;51.398;7.088;2023-07-20T12:28:19;1.83;;;1.73;;
11735;SDS011;5924;51.398;7.088;2023-07-20T12:30:51;1.73;;;1.43;;
11735;SDS011;5924;51.398;7.088;2023-07-20T12:33:25;2.03;;;2.03;;
11735;SDS011;5924;51.398;7.088;2023-07-20T12:36:02;2.23;;;1.60;;
11735;SDS011;5924;51.398;7.088;2023-07-20T12:38:31;1.97;;;1.80;;
11735;SDS011;5924;51.398;7.088;2023-07-20T12:41:05;1.67;;;1.67;;
11735;SDS011;5924;51.398;7.088;2023-07-20T12:43:43;2.20;;;1.40;;
11735;SDS011;5924;51.398;7.088;2023-07-20T12:46:23;1.53;;;1.53;;
11735;SDS011;5924;51.398;7.088;2023-07-20T12:48:54;1.37;;;1.37;;
11735;SDS011;5924;51.398;7.088;2023-07-20T12:51:20;1.30;;;1.30;;
11735;SDS011;5924;51.398;7.088;2023-07-20T12:53:49;1.47;;;1.47;;
11735;SDS011;5924;51.398;7.088;2023-07-20T12:56:15;1.57;;;1.57;;
11735;SDS011;5924;51.398;7.088;2023-07-20T12:58:46;1.80;;;1.80;;
11735;SDS011;5924;51.398;7.088;2023-07-20T13:01:33;5.10;;;1.73;;
11735;SDS011;5924;51.398;7.088;2023-07-20T13:04:03;2.40;;;2.30;;
11735;SDS011;5924;51.398;7.088;2023-07-20T13:06:42;1.80;;;1.80;;
11735;SDS011;5924;51.398;7.088;2023-07-20T13:09:08;1.90;;;1.87;;
11735;SDS011;5924;51.398;7.088;2023-07-20T13:11:48;1.80;;;1.80;;
11735;SDS011;5924;51.398;7.088;2023-07-20T13:14:44;2.30;;;2.10;;
11735;SDS011;5924;51.398;7.088;2023-07-20T13:17:16;1.70;;;1.70;;
11735;SDS011;5924;51.398;7.088;2023-07-20T13:19:52;2.00;;;1.80;;
11735;SDS011;5924;51.398;7.088;2023-07-20T13:22:22;1.40;;;1.40;;
11735;SDS011;5924;51.398;7.088;2023-07-20T13:25:24;1.53;;;1.53;;
11735;SDS011;5924;51.398;7.088;2023-07-20T13:27:56;1.67;;;1.67;;
11735;SDS011;5924;51.398;7.088;2023-07-20T13:30:26;1.73;;;1.73;;
11735;SDS011;5924;51.398;7.088;2023-07-20T13:32:52;1.50;;;1.50;;
11735;SDS011;5924;51.398;7.088;2023-07-20T13:35:17;1.70;;;1.70;;
11735;SDS011;5924;51.398;7.088;2023-07-20T13:37:46;1.93;;;1.70;;
11735;SDS011;5924;51.398;7.088;2023-07-20T13:40:12;1.40;;;1.40;;
11735;SDS011;5924;51.398;7.088;2023-07-20T13:42:41;1.63;;;1.63;;
11735;SDS011;5924;51.398;7.088;2023-07-20T13:45:07;2.87;;;1.60;;
11735;SDS011;5924;51.398;7.088;2023-07-20T13:47:36;1.50;;;1.50;;
11735;SDS011;5924;51.398;7.088;2023-07-20T13:50:04;1.57;;;1.57;;
11735;SDS011;5924;51.398;7.088;2023-07-20T13:52:36;1.60;;;1.60;;
11735;SDS011;5924;51.398;7.088;2023-07-20T13:55:02;1.50;;;1.50;;
11735;SDS011;5924;51.398;7.088;2023-07-20T13:57:30;1.93;;;1.40;;
11735;SDS011;5924;51.398;7.088;2023-07-20T14:00:03;1.50;;;1.50;;
11735;SDS011;5924;51.398;7.088;2023-07-20T14:02:35;2.60;;;1.47;;
11735;SDS011;5924;51.398;7.088;2023-07-20T14:05:07;2.00;;;1.37;;
11735;SDS011;5924;51.398;7.088;2023-07-20T14:07:34;2.03;;;1.00;;
11735;SDS011;5924;51.398;7.088;2023-07-20T14:10:04;0.80;;;0.80;;
11735;SDS011;5924;51.398;7.088;2023-07-20T14:12:32;1.20;;;1.20;;
11735;SDS011;5924;51.398;7.088;2023-07-20T14:15:03;1.13;;;0.80;;
11735;SDS011;5924;51.398;7.088;2023-07-20T14:17:32;1.20;;;1.10;;
11735;SDS011;5924;51.398;7.088;2023-07-20T14:20:03;0.90;;;0.90;;
11735;SDS011;5924;51.398;7.088;2023-07-20T14:22:33;1.10;;;1.10;;
11735;SDS011;5924;51.398;7.088;2023-07-20T14:24:59;0.93;;;0.93;;
11735;SDS011;5924;51.398;7.088;2023-07-20T14:27:27;0.80;;;0.80;;
11735;SDS011;5924;51.398;7.088;2023-07-20T14:30:05;1.40;;;1.30;;
11735;SDS011;5924;51.398;7.088;2023-07-20T14:32:40;1.00;;;1.00;;
11735;SDS011;5924;51.398;7.088;2023-07-20T14:35:06;0.80;;;0.77;;
11735;SDS011;5924;51.398;7.088;2023-07-20T14:37:40;1.47;;;1.00;;
11735;SDS011;5924;51.398;7.088;2023-07-20T14:40:12;3.80;;;0.87;;
11735;SDS011;5924;51.398;7.088;2023-07-20T14:42:38;2.00;;;0.80;;
11735;SDS011;5924;51.398;7.088;2023-07-20T14:45:07;0.87;;;0.80;;
11735;SDS011;5924;51.398;7.088;2023-07-20T14:47:35;0.90;;;0.90;;
11735;SDS011;5924;51.398;7.088;2023-07-20T14:50:04;0.80;;;0.80;;
11735;SDS011;5924;51.398;7.088;2023-07-20T14:52:31;0.80;;;0.80;;
11735;SDS011;5924;51.398;7.088;2023-07-20T14:55:02;1.67;;;0.80;;
11735;SDS011;5924;51.398;7.088;2023-07-20T14:57:28;0.70;;;0.70;;
11735;SDS011;5924;51.398;7.088;2023-07-20T14:59:54;0.90;;;0.90;;
11735;SDS011;5924;51.398;7.088;2023-07-20T15:02:32;0.70;;;0.70;;
11735;SDS011;5924;51.398;7.088;2023-07-20T15:04:57;0.90;;;0.90;;
11735;SDS011;5924;51.398;7.088;2023-07-20T15:07:23;3.30;;;0.80;;
11735;SDS011;5924;51.398;7.088;2023-07-20T15:09:49;1.70;;;0.80;;
11735;SDS011;5924;51.398;7.088;2023-07-20T15:12:17;0.87;;;0.87;;
11735;SDS011;5924;51.398;7.088;2023-07-20T15:14:43;0.80;;;0.80;;
11735;SDS011;5924;51.398;7.088;2023-07-20T15:17:31;1.23;;;1.20;;
11735;SDS011;5924;51.398;7.088;2023-07-20T15:19:57;0.70;;;0.70;;
11735;SDS011;5924;51.398;7.088;2023-07-20T15:22:24;1.07;;;0.80;;
11735;SDS011;5924;51.398;7.088;2023-07-20T15:24:50;0.90;;;0.90;;
11735;SDS011;5924;51.398;7.088;2023-07-20T15:27:18;0.70;;;0.70;;
11735;SDS011;5924;51.398;7.088;2023-07-20T15:29:53;0.80;;;0.80;;
11735;SDS011;5924;51.398;7.088;2023-07-20T15:32:25;0.73;;;0.73;;
11735;SDS011;5924;51.398;7.088;2023-07-20T15:34:50;0.80;;;0.80;;
11735;SDS011;5924;51.398;7.088;2023-07-20T15:37:16;0.70;;;0.70;;
11735;SDS011;5924;51.398;7.088;2023-07-20T15:39:48;2.43;;;1.00;;
11735;SDS011;5924;51.398;7.088;2023-07-20T15:42:17;0.63;;;0.63;;
11735;SDS011;5924;51.398;7.088;2023-07-20T15:44:45;0.80;;;0.80;;
11735;SDS011;5924;51.398;7.088;2023-07-20T15:47:12;0.50;;;0.50;;
11735;SDS011;5924;51.398;7.088;2023-07-20T15:49:41;0.80;;;0.80;;
11735;SDS011;5924;51.398;7.088;2023-07-20T15:52:11;0.70;;;0.70;;